sensor_id;sensor_type;location;lat;lon;timestamp;temperature;humidity
26589;DHT22;14235;48.532;8.722;2022-09-20T01:22:44;7.00;99.90
26589;DHT22;14235;48.532;8.722;2022-09-20T01:28:15;6.90;99.90
26589;DHT22;14235;48.532;8.722;2022-09-20T01:30:47;6.90;99.90
26589;DHT22;14235;48.532;8.722;2022-09-20T01:35:49;6.60;99.90
26589;DHT22;14235;48.532;8.722;2022-09-20T01:38:41;6.60;99.90
26589;DHT22;14235;48.532;8.722;2022-09-20T02:23:44;6.50;99.90
26589;DHT22;14235;48.532;8.722;2022-09-20T02:26:42;6.30;99.90
26589;DHT22;14235;48.532;8.722;2022-09-20T02:40:21;6.10;99.90
26589;DHT22;14235;48.532;8.722;2022-09-20T02:54:59;5.90;99.90
26589;DHT22;14235;48.532;8.722;2022-09-20T03:00:35;6.10;99.90
26589;DHT22;14235;48.532;8.722;2022-09-20T03:03:16;6.40;99.90
26589;DHT22;14235;48.532;8.722;2022-09-20T03:11:31;6.40;99.90
26589;DHT22;14235;48.532;8.722;2022-09-20T03:14:19;6.40;99.90
26589;DHT22;14235;48.532;8.722;2022-09-20T03:34:04;5.60;99.90
26589;DHT22;14235;48.532;8.722;2022-09-20T03:50:34;5.90;99.90
26589;DHT22;14235;48.532;8.722;2022-09-20T04:04:23;6.30;99.90
26589;DHT22;14235;48.532;8.722;2022-09-20T04:07:12;6.40;99.90
26589;DHT22;14235;48.532;8.722;2022-09-20T04:13:01;6.40;99.90
26589;DHT22;14235;48.532;8.722;2022-09-20T04:24:24;6.40;99.90
26589;DHT22;14235;48.532;8.722;2022-09-20T04:29:57;6.40;99.90
26589;DHT22;14235;48.532;8.722;2022-09-20T04:33:02;6.30;99.90
26589;DHT22;14235;48.532;8.722;2022-09-20T04:44:52;6.30;99.90
26589;DHT22;14235;48.532;8.722;2022-09-20T05:02:15;6.40;99.90
26589;DHT22;14235;48.532;8.722;2022-09-20T05:15:56;6.40;99.90
26589;DHT22;14235;48.532;8.722;2022-09-20T05:38:46;6.40;99.90
26589;DHT22;14235;48.532;8.722;2022-09-20T05:41:12;6.20;99.90
26589;DHT22;14235;48.532;8.722;2022-09-20T05:47:12;6.10;99.90
26589;DHT22;14235;48.532;8.722;2022-09-20T06:01:13;6.20;99.90
26589;DHT22;14235;48.532;8.722;2022-09-20T06:04:03;6.10;99.90
26589;DHT22;14235;48.532;8.722;2022-09-20T06:06:48;6.20;99.90
26589;DHT22;14235;48.532;8.722;2022-09-20T06:15:11;6.40;99.90
26589;DHT22;14235;48.532;8.722;2022-09-20T06:17:56;6.60;99.90
26589;DHT22;14235;48.532;8.722;2022-09-20T06:21:19;6.60;99.90
26589;DHT22;14235;48.532;8.722;2022-09-20T06:23:24;6.60;99.90
26589;DHT22;14235;48.532;8.722;2022-09-20T06:25:58;6.80;99.90
26589;DHT22;14235;48.532;8.722;2022-09-20T06:28:38;6.80;99.90
26589;DHT22;14235;48.532;8.722;2022-09-20T06:31:04;6.80;99.90
26589;DHT22;14235;48.532;8.722;2022-09-20T06:33:42;6.80;99.90
26589;DHT22;14235;48.532;8.722;2022-09-20T06:36:39;6.80;99.90
26589;DHT22;14235;48.532;8.722;2022-09-20T06:39:39;6.80;99.90
26589;DHT22;14235;48.532;8.722;2022-09-20T06:42:26;6.70;99.90
26589;DHT22;14235;48.532;8.722;2022-09-20T06:44:54;6.60;99.90
26589;DHT22;14235;48.532;8.722;2022-09-20T06:47:19;6.70;99.90
26589;DHT22;14235;48.532;8.722;2022-09-20T06:49:47;6.70;99.90
26589;DHT22;14235;48.532;8.722;2022-09-20T06:52:19;6.70;99.90
26589;DHT22;14235;48.532;8.722;2022-09-20T06:54:46;6.80;99.90
26589;DHT22;14235;48.532;8.722;2022-09-20T06:57:15;6.80;99.90
26589;DHT22;14235;48.532;8.722;2022-09-20T06:59:42;7.00;99.90
26589;DHT22;14235;48.532;8.722;2022-09-20T07:02:08;7.00;99.90
26589;DHT22;14235;48.532;8.722;2022-09-20T07:04:34;7.10;99.90
26589;DHT22;14235;48.532;8.722;2022-09-20T07:07:01;7.20;99.90
26589;DHT22;14235;48.532;8.722;2022-09-20T07:09:26;7.40;99.90
26589;DHT22;14235;48.532;8.722;2022-09-20T07:11:53;7.40;99.90
26589;DHT22;14235;48.532;8.722;2022-09-20T07:14:21;7.40;99.90
26589;DHT22;14235;48.532;8.722;2022-09-20T07:16:47;7.40;99.90
26589;DHT22;14235;48.532;8.722;2022-09-20T07:19:13;7.50;99.90
26589;DHT22;14235;48.532;8.722;2022-09-20T07:21:39;7.40;99.90
26589;DHT22;14235;48.532;8.722;2022-09-20T07:24:05;7.50;99.90
26589;DHT22;14235;48.532;8.722;2022-09-20T07:26:31;7.40;99.90
26589;DHT22;14235;48.532;8.722;2022-09-20T07:28:58;7.60;99.90
26589;DHT22;14235;48.532;8.722;2022-09-20T07:31:25;7.60;99.90
26589;DHT22;14235;48.532;8.722;2022-09-20T07:33:52;7.60;99.90
26589;DHT22;14235;48.532;8.722;2022-09-20T07:36:17;7.60;99.90
26589;DHT22;14235;48.532;8.722;2022-09-20T07:38:48;7.70;99.90
26589;DHT22;14235;48.532;8.722;2022-09-20T07:41:15;7.80;99.90
26589;DHT22;14235;48.532;8.722;2022-09-20T07:43:43;7.70;99.90
26589;DHT22;14235;48.532;8.722;2022-09-20T07:46:09;7.90;99.90
26589;DHT22;14235;48.532;8.722;2022-09-20T07:48:39;7.80;99.90
26589;DHT22;14235;48.532;8.722;2022-09-20T07:51:07;7.90;99.90
26589;DHT22;14235;48.532;8.722;2022-09-20T07:53:34;8.00;99.90
26589;DHT22;14235;48.532;8.722;2022-09-20T07:56:01;8.00;99.90
26589;DHT22;14235;48.532;8.722;2022-09-20T07:58:32;8.00;99.90
26589;DHT22;14235;48.532;8.722;2022-09-20T08:01:00;8.10;99.90
26589;DHT22;14235;48.532;8.722;2022-09-20T08:03:29;8.20;99.90
26589;DHT22;14235;48.532;8.722;2022-09-20T08:06:06;8.30;99.90
26589;DHT22;14235;48.532;8.722;2022-09-20T08:08:33;8.40;99.90
26589;DHT22;14235;48.532;8.722;2022-09-20T08:11:11;8.50;99.90
26589;DHT22;14235;48.532;8.722;2022-09-20T08:13:43;8.50;99.90
26589;DHT22;14235;48.532;8.722;2022-09-20T08:16:10;8.50;99.90
26589;DHT22;14235;48.532;8.722;2022-09-20T08:18:37;8.70;99.90
26589;DHT22;14235;48.532;8.722;2022-09-20T08:21:04;8.80;99.90
26589;DHT22;14235;48.532;8.722;2022-09-20T08:23:35;8.90;99.90
26589;DHT22;14235;48.532;8.722;2022-09-20T08:26:02;9.00;99.90
26589;DHT22;14235;48.532;8.722;2022-09-20T08:28:29;9.00;99.90
26589;DHT22;14235;48.532;8.722;2022-09-20T08:31:05;9.20;99.90
26589;DHT22;14235;48.532;8.722;2022-09-20T08:35:59;9.40;99.90
26589;DHT22;14235;48.532;8.722;2022-09-20T08:41:30;9.60;99.90
26589;DHT22;14235;48.532;8.722;2022-09-20T08:49:40;9.80;99.90
26589;DHT22;14235;48.532;8.722;2022-09-20T08:52:13;9.90;99.90
26589;DHT22;14235;48.532;8.722;2022-09-20T08:54:40;10.00;99.90
26589;DHT22;14235;48.532;8.722;2022-09-20T08:57:15;10.00;99.90
26589;DHT22;14235;48.532;8.722;2022-09-20T08:59:41;10.20;99.90
26589;DHT22;14235;48.532;8.722;2022-09-20T09:02:15;10.10;99.90
26589;DHT22;14235;48.532;8.722;2022-09-20T09:04:41;10.10;99.90
26589;DHT22;14235;48.532;8.722;2022-09-20T09:07:13;10.30;99.90
26589;DHT22;14235;48.532;8.722;2022-09-20T09:09:43;10.40;99.90
26589;DHT22;14235;48.532;8.722;2022-09-20T09:12:35;10.50;99.90
26589;DHT22;14235;48.532;8.722;2022-09-20T09:15:31;10.50;99.90
26589;DHT22;14235;48.532;8.722;2022-09-20T09:17:58;10.40;99.90
26589;DHT22;14235;48.532;8.722;2022-09-20T09:20:24;10.50;99.90
26589;DHT22;14235;48.532;8.722;2022-09-20T09:30:43;10.40;99.90
26589;DHT22;14235;48.532;8.722;2022-09-20T09:35:41;10.50;99.90
26589;DHT22;14235;48.532;8.722;2022-09-20T09:38:19;10.50;99.90
26589;DHT22;14235;48.532;8.722;2022-09-20T09:40:56;10.60;99.90
26589;DHT22;14235;48.532;8.722;2022-09-20T09:43:25;10.70;99.90
26589;DHT22;14235;48.532;8.722;2022-09-20T09:45:54;10.90;99.90
26589;DHT22;14235;48.532;8.722;2022-09-20T09:48:31;11.10;99.90
26589;DHT22;14235;48.532;8.722;2022-09-20T11:46:10;12.50;99.90
26589;DHT22;14235;48.532;8.722;2022-09-20T11:48:53;12.60;99.90
26589;DHT22;14235;48.532;8.722;2022-09-20T11:55:09;12.60;99.90
26589;DHT22;14235;48.532;8.722;2022-09-20T11:57:37;12.70;99.90
26589;DHT22;14235;48.532;8.722;2022-09-20T12:00:05;12.70;99.90
26589;DHT22;14235;48.532;8.722;2022-09-20T12:02:35;12.70;99.90
26589;DHT22;14235;48.532;8.722;2022-09-20T12:05:04;12.80;99.90
26589;DHT22;14235;48.532;8.722;2022-09-20T12:07:40;12.80;99.90
26589;DHT22;14235;48.532;8.722;2022-09-20T12:10:29;13.00;99.90
26589;DHT22;14235;48.532;8.722;2022-09-20T12:13:04;13.20;99.90
26589;DHT22;14235;48.532;8.722;2022-09-20T12:15:31;13.20;99.90
26589;DHT22;14235;48.532;8.722;2022-09-20T12:28:50;13.90;99.90
26589;DHT22;14235;48.532;8.722;2022-09-20T14:38:39;16.00;96.70
26589;DHT22;14235;48.532;8.722;2022-09-20T14:41:07;16.30;98.30
26589;DHT22;14235;48.532;8.722;2022-09-20T14:43:34;17.00;99.50
26589;DHT22;14235;48.532;8.722;2022-09-20T14:46:11;18.40;95.10
26589;DHT22;14235;48.532;8.722;2022-09-20T14:53:52;22.00;60.90
26589;DHT22;14235;48.532;8.722;2022-09-20T14:56:33;22.20;60.10
26589;DHT22;14235;48.532;8.722;2022-09-20T15:02:00;21.10;61.70
26589;DHT22;14235;48.532;8.722;2022-09-20T15:04:28;20.40;64.10
26589;DHT22;14235;48.532;8.722;2022-09-20T15:06:56;19.50;65.80
26589;DHT22;14235;48.532;8.722;2022-09-20T15:09:24;18.90;67.90
26589;DHT22;14235;48.532;8.722;2022-09-20T15:14:36;17.80;71.70
26589;DHT22;14235;48.532;8.722;2022-09-20T15:17:02;17.40;82.70
26589;DHT22;14235;48.532;8.722;2022-09-20T15:19:28;17.10;76.20
26589;DHT22;14235;48.532;8.722;2022-09-20T15:21:55;16.70;76.90
26589;DHT22;14235;48.532;8.722;2022-09-20T15:24:21;16.50;77.50
26589;DHT22;14235;48.532;8.722;2022-09-20T15:26:47;16.20;79.00
26589;DHT22;14235;48.532;8.722;2022-09-20T15:29:17;16.00;79.70
26589;DHT22;14235;48.532;8.722;2022-09-20T15:31:46;15.70;84.80
26589;DHT22;14235;48.532;8.722;2022-09-20T15:34:13;15.60;84.20
26589;DHT22;14235;48.532;8.722;2022-09-20T15:36:49;15.40;84.90
26589;DHT22;14235;48.532;8.722;2022-09-20T15:39:15;15.10;87.60
26589;DHT22;14235;48.532;8.722;2022-09-20T15:41:44;15.00;90.30
26589;DHT22;14235;48.532;8.722;2022-09-20T15:44:11;14.90;87.90
26589;DHT22;14235;48.532;8.722;2022-09-20T15:46:41;14.90;90.30
26589;DHT22;14235;48.532;8.722;2022-09-20T15:49:10;14.80;90.80
26589;DHT22;14235;48.532;8.722;2022-09-20T15:51:36;14.80;91.80
26589;DHT22;14235;48.532;8.722;2022-09-20T15:54:05;14.70;91.60
26589;DHT22;14235;48.532;8.722;2022-09-20T15:56:36;14.50;91.50
26589;DHT22;14235;48.532;8.722;2022-09-20T15:59:06;14.40;92.70
26589;DHT22;14235;48.532;8.722;2022-09-20T16:01:34;14.20;94.30
26589;DHT22;14235;48.532;8.722;2022-09-20T16:04:06;14.10;95.30
26589;DHT22;14235;48.532;8.722;2022-09-20T16:06:33;14.00;96.60
26589;DHT22;14235;48.532;8.722;2022-09-20T16:08:59;13.80;98.60
26589;DHT22;14235;48.532;8.722;2022-09-20T16:11:24;13.90;97.30
26589;DHT22;14235;48.532;8.722;2022-09-20T16:13:56;13.70;96.50
26589;DHT22;14235;48.532;8.722;2022-09-20T16:16:22;13.70;96.50
26589;DHT22;14235;48.532;8.722;2022-09-20T16:18:48;13.50;97.40
26589;DHT22;14235;48.532;8.722;2022-09-20T16:21:32;13.60;97.90
26589;DHT22;14235;48.532;8.722;2022-09-20T16:23:58;13.60;99.90
26589;DHT22;14235;48.532;8.722;2022-09-20T16:26:26;13.30;99.90
26589;DHT22;14235;48.532;8.722;2022-09-20T16:28:53;13.30;99.90
26589;DHT22;14235;48.532;8.722;2022-09-20T16:31:39;13.30;99.90
26589;DHT22;14235;48.532;8.722;2022-09-20T16:34:20;13.30;99.90
26589;DHT22;14235;48.532;8.722;2022-09-20T16:36:47;13.20;99.90
26589;DHT22;14235;48.532;8.722;2022-09-20T16:39:15;13.10;99.90
26589;DHT22;14235;48.532;8.722;2022-09-20T16:41:42;13.00;99.90
26589;DHT22;14235;48.532;8.722;2022-09-20T16:44:08;12.90;99.90
26589;DHT22;14235;48.532;8.722;2022-09-20T16:46:34;13.00;99.90
26589;DHT22;14235;48.532;8.722;2022-09-20T16:49:06;12.90;99.90
26589;DHT22;14235;48.532;8.722;2022-09-20T16:51:35;12.90;99.90
26589;DHT22;14235;48.532;8.722;2022-09-20T16:54:03;12.90;99.90
26589;DHT22;14235;48.532;8.722;2022-09-20T16:56:33;13.00;99.90
26589;DHT22;14235;48.532;8.722;2022-09-20T16:59:00;12.90;99.90
26589;DHT22;14235;48.532;8.722;2022-09-20T17:01:26;12.80;99.90
26589;DHT22;14235;48.532;8.722;2022-09-20T17:03:52;12.70;99.90
26589;DHT22;14235;48.532;8.722;2022-09-20T17:06:19;12.70;99.90
26589;DHT22;14235;48.532;8.722;2022-09-20T17:08:45;12.70;99.90
26589;DHT22;14235;48.532;8.722;2022-09-20T17:11:15;12.70;99.90
26589;DHT22;14235;48.532;8.722;2022-09-20T17:13:43;12.60;99.90
26589;DHT22;14235;48.532;8.722;2022-09-20T17:16:11;12.70;99.90
26589;DHT22;14235;48.532;8.722;2022-09-20T17:18:37;12.70;99.90
26589;DHT22;14235;48.532;8.722;2022-09-20T17:21:10;12.50;99.90
26589;DHT22;14235;48.532;8.722;2022-09-20T17:23:38;12.60;99.90
26589;DHT22;14235;48.532;8.722;2022-09-20T17:26:09;12.50;99.90
26589;DHT22;14235;48.532;8.722;2022-09-20T17:28:38;12.40;99.90
26589;DHT22;14235;48.532;8.722;2022-09-20T17:31:06;12.50;99.90
26589;DHT22;14235;48.532;8.722;2022-09-20T17:33:34;12.40;99.90
26589;DHT22;14235;48.532;8.722;2022-09-20T17:36:01;12.50;99.90
26589;DHT22;14235;48.532;8.722;2022-09-20T17:38:32;12.30;99.90
26589;DHT22;14235;48.532;8.722;2022-09-20T17:41:19;12.30;99.90
26589;DHT22;14235;48.532;8.722;2022-09-20T17:43:46;12.30;99.90
26589;DHT22;14235;48.532;8.722;2022-09-20T17:46:19;12.30;99.90
26589;DHT22;14235;48.532;8.722;2022-09-20T17:48:51;12.20;99.90
26589;DHT22;14235;48.532;8.722;2022-09-20T17:51:23;12.30;99.90
26589;DHT22;14235;48.532;8.722;2022-09-20T17:53:51;12.20;99.90
26589;DHT22;14235;48.532;8.722;2022-09-20T17:56:18;12.20;99.90
26589;DHT22;14235;48.532;8.722;2022-09-20T17:58:47;12.20;99.90
26589;DHT22;14235;48.532;8.722;2022-09-20T18:01:19;12.30;99.90
26589;DHT22;14235;48.532;8.722;2022-09-20T18:03:46;12.20;99.90
26589;DHT22;14235;48.532;8.722;2022-09-20T18:06:21;12.30;99.90
26589;DHT22;14235;48.532;8.722;2022-09-20T18:08:54;12.10;99.90
26589;DHT22;14235;48.532;8.722;2022-09-20T18:11:22;12.20;99.90
26589;DHT22;14235;48.532;8.722;2022-09-20T18:13:49;12.20;99.90
26589;DHT22;14235;48.532;8.722;2022-09-20T18:16:15;12.10;99.90
26589;DHT22;14235;48.532;8.722;2022-09-20T18:18:43;12.20;99.90
26589;DHT22;14235;48.532;8.722;2022-09-20T18:21:20;12.10;99.90
26589;DHT22;14235;48.532;8.722;2022-09-20T18:23:47;12.00;99.90
26589;DHT22;14235;48.532;8.722;2022-09-20T18:26:22;11.90;99.90
26589;DHT22;14235;48.532;8.722;2022-09-20T18:28:58;12.00;99.90
26589;DHT22;14235;48.532;8.722;2022-09-20T18:31:28;12.00;99.90
26589;DHT22;14235;48.532;8.722;2022-09-20T18:33:57;12.00;99.90
26589;DHT22;14235;48.532;8.722;2022-09-20T18:36:24;11.90;99.90
26589;DHT22;14235;48.532;8.722;2022-09-20T18:38:52;12.00;99.90
26589;DHT22;14235;48.532;8.722;2022-09-20T18:41:25;11.90;99.90
26589;DHT22;14235;48.532;8.722;2022-09-20T18:43:52;11.90;99.90
26589;DHT22;14235;48.532;8.722;2022-09-20T18:46:18;11.80;99.90
26589;DHT22;14235;48.532;8.722;2022-09-20T18:48:48;11.80;99.90
26589;DHT22;14235;48.532;8.722;2022-09-20T18:51:14;11.70;99.90
26589;DHT22;14235;48.532;8.722;2022-09-20T18:53:40;11.60;99.90
26589;DHT22;14235;48.532;8.722;2022-09-20T18:56:28;11.50;99.90
26589;DHT22;14235;48.532;8.722;2022-09-20T18:58:56;11.50;99.90
26589;DHT22;14235;48.532;8.722;2022-09-20T19:01:50;11.60;99.90
26589;DHT22;14235;48.532;8.722;2022-09-20T19:07:22;11.60;99.90
26589;DHT22;14235;48.532;8.722;2022-09-20T19:13:05;11.60;99.90
26589;DHT22;14235;48.532;8.722;2022-09-20T19:16:00;11.60;99.90
26589;DHT22;14235;48.532;8.722;2022-09-20T19:26:34;11.50;99.90
26589;DHT22;14235;48.532;8.722;2022-09-20T19:29:13;11.50;99.90
26589;DHT22;14235;48.532;8.722;2022-09-20T19:31:41;11.50;99.90
26589;DHT22;14235;48.532;8.722;2022-09-20T19:34:21;11.40;99.90
26589;DHT22;14235;48.532;8.722;2022-09-20T19:50:48;11.30;99.90
26589;DHT22;14235;48.532;8.722;2022-09-20T19:53:16;11.30;99.90
26589;DHT22;14235;48.532;8.722;2022-09-20T19:58:36;11.30;99.90
26589;DHT22;14235;48.532;8.722;2022-09-20T20:01:02;11.30;99.90
26589;DHT22;14235;48.532;8.722;2022-09-20T20:03:28;11.30;99.90
26589;DHT22;14235;48.532;8.722;2022-09-20T20:09:11;11.30;99.90
26589;DHT22;14235;48.532;8.722;2022-09-20T20:11:45;11.30;99.90
26589;DHT22;14235;48.532;8.722;2022-09-20T20:28:04;10.90;99.90
26589;DHT22;14235;48.532;8.722;2022-09-20T20:32:56;11.00;99.90
26589;DHT22;14235;48.532;8.722;2022-09-20T20:35:25;11.20;99.90
26589;DHT22;14235;48.532;8.722;2022-09-20T20:37:52;11.10;99.90
26589;DHT22;14235;48.532;8.722;2022-09-20T20:40:18;11.10;99.90
26589;DHT22;14235;48.532;8.722;2022-09-20T20:42:44;11.00;99.90
26589;DHT22;14235;48.532;8.722;2022-09-20T20:45:10;11.10;99.90
26589;DHT22;14235;48.532;8.722;2022-09-20T20:47:36;11.10;99.90
26589;DHT22;14235;48.532;8.722;2022-09-20T20:50:02;11.00;99.90
26589;DHT22;14235;48.532;8.722;2022-09-20T20:52:28;10.90;99.90
26589;DHT22;14235;48.532;8.722;2022-09-20T20:54:53;11.10;99.90
26589;DHT22;14235;48.532;8.722;2022-09-20T20:57:19;11.00;99.90
26589;DHT22;14235;48.532;8.722;2022-09-20T20:59:45;11.00;99.90
26589;DHT22;14235;48.532;8.722;2022-09-20T21:02:10;11.00;99.90
26589;DHT22;14235;48.532;8.722;2022-09-20T21:04:36;11.10;99.90
26589;DHT22;14235;48.532;8.722;2022-09-20T21:07:04;11.10;99.90
26589;DHT22;14235;48.532;8.722;2022-09-20T21:09:30;11.00;99.90
26589;DHT22;14235;48.532;8.722;2022-09-20T21:11:56;11.00;99.90
26589;DHT22;14235;48.532;8.722;2022-09-20T21:14:22;10.90;99.90
26589;DHT22;14235;48.532;8.722;2022-09-20T21:16:50;10.90;99.90
26589;DHT22;14235;48.532;8.722;2022-09-20T21:19:16;10.90;99.90
26589;DHT22;14235;48.532;8.722;2022-09-20T21:21:45;10.90;99.90
26589;DHT22;14235;48.532;8.722;2022-09-20T21:24:13;10.90;99.90
26589;DHT22;14235;48.532;8.722;2022-09-20T21:26:42;10.80;99.90
26589;DHT22;14235;48.532;8.722;2022-09-20T21:29:12;10.90;99.90
26589;DHT22;14235;48.532;8.722;2022-09-20T21:31:40;10.80;99.90
26589;DHT22;14235;48.532;8.722;2022-09-20T21:34:07;10.90;99.90
26589;DHT22;14235;48.532;8.722;2022-09-20T21:36:35;10.80;99.90
26589;DHT22;14235;48.532;8.722;2022-09-20T21:39:01;10.90;99.90
26589;DHT22;14235;48.532;8.722;2022-09-20T21:41:29;10.90;99.90
26589;DHT22;14235;48.532;8.722;2022-09-20T21:43:57;10.90;99.90
26589;DHT22;14235;48.532;8.722;2022-09-20T21:46:31;10.90;99.90
26589;DHT22;14235;48.532;8.722;2022-09-20T21:49:02;10.80;99.90
26589;DHT22;14235;48.532;8.722;2022-09-20T21:51:28;10.90;99.90
26589;DHT22;14235;48.532;8.722;2022-09-20T21:53:56;10.80;99.90
26589;DHT22;14235;48.532;8.722;2022-09-20T21:56:23;10.80;99.90
26589;DHT22;14235;48.532;8.722;2022-09-20T21:58:49;10.80;99.90
26589;DHT22;14235;48.532;8.722;2022-09-20T22:01:22;10.80;99.90
26589;DHT22;14235;48.532;8.722;2022-09-20T22:03:50;10.60;99.90
26589;DHT22;14235;48.532;8.722;2022-09-20T22:06:18;10.70;99.90
26589;DHT22;14235;48.532;8.722;2022-09-20T22:08:47;10.60;99.90
26589;DHT22;14235;48.532;8.722;2022-09-20T22:11:14;10.60;99.90
26589;DHT22;14235;48.532;8.722;2022-09-20T22:13:44;10.60;99.90
26589;DHT22;14235;48.532;8.722;2022-09-20T22:16:16;10.60;99.90
26589;DHT22;14235;48.532;8.722;2022-09-20T22:18:42;10.60;99.90
26589;DHT22;14235;48.532;8.722;2022-09-20T22:21:14;10.50;99.90
26589;DHT22;14235;48.532;8.722;2022-09-20T22:23:41;10.50;99.90
26589;DHT22;14235;48.532;8.722;2022-09-20T22:26:12;10.50;99.90
26589;DHT22;14235;48.532;8.722;2022-09-20T22:28:39;10.40;99.90
26589;DHT22;14235;48.532;8.722;2022-09-20T22:31:11;10.40;99.90
26589;DHT22;14235;48.532;8.722;2022-09-20T22:33:41;10.50;99.90
26589;DHT22;14235;48.532;8.722;2022-09-20T22:36:09;10.40;99.90
26589;DHT22;14235;48.532;8.722;2022-09-20T22:38:35;10.40;99.90
26589;DHT22;14235;48.532;8.722;2022-09-20T22:41:01;10.40;99.90
26589;DHT22;14235;48.532;8.722;2022-09-20T22:43:27;10.30;99.90
26589;DHT22;14235;48.532;8.722;2022-09-20T22:45:53;10.30;99.90
26589;DHT22;14235;48.532;8.722;2022-09-20T22:48:25;10.20;99.90
26589;DHT22;14235;48.532;8.722;2022-09-20T22:50:58;10.00;99.90
26589;DHT22;14235;48.532;8.722;2022-09-20T22:53:24;10.10;99.90
26589;DHT22;14235;48.532;8.722;2022-09-20T22:55:49;10.10;99.90
26589;DHT22;14235;48.532;8.722;2022-09-20T23:03:07;9.80;99.90
26589;DHT22;14235;48.532;8.722;2022-09-20T23:07:59;9.60;99.90
26589;DHT22;14235;48.532;8.722;2022-09-20T23:10:24;9.70;99.90
26589;DHT22;14235;48.532;8.722;2022-09-20T23:12:51;9.70;99.90
26589;DHT22;14235;48.532;8.722;2022-09-20T23:15:18;9.10;99.90
26589;DHT22;14235;48.532;8.722;2022-09-20T23:20:10;9.70;99.90
26589;DHT22;14235;48.532;8.722;2022-09-20T23:22:36;9.70;99.90
26589;DHT22;14235;48.532;8.722;2022-09-20T23:25:01;9.70;99.90
26589;DHT22;14235;48.532;8.722;2022-09-20T23:27:27;9.50;99.90
26589;DHT22;14235;48.532;8.722;2022-09-20T23:29:53;9.50;99.90
26589;DHT22;14235;48.532;8.722;2022-09-20T23:32:18;9.50;99.90
26589;DHT22;14235;48.532;8.722;2022-09-20T23:34:44;9.50;99.90
26589;DHT22;14235;48.532;8.722;2022-09-20T23:37:10;9.50;99.90
26589;DHT22;14235;48.532;8.722;2022-09-20T23:39:36;9.50;99.90
26589;DHT22;14235;48.532;8.722;2022-09-20T23:42:02;9.60;99.90
26589;DHT22;14235;48.532;8.722;2022-09-20T23:44:28;9.40;99.90
26589;DHT22;14235;48.532;8.722;2022-09-20T23:46:53;9.40;99.90
26589;DHT22;14235;48.532;8.722;2022-09-20T23:49:19;9.40;99.90
26589;DHT22;14235;48.532;8.722;2022-09-20T23:51:45;9.40;99.90
26589;DHT22;14235;48.532;8.722;2022-09-20T23:54:10;9.40;99.90
26589;DHT22;14235;48.532;8.722;2022-09-20T23:56:36;9.40;99.90
26589;DHT22;14235;48.532;8.722;2022-09-20T23:59:01;9.40;99.90
